sensor_id;sensor_type;location;lat;lon;timestamp;P1;durP1;ratioP1;P2;durP2;ratioP2
25249;SDS011;13201;51.148;13.738;2022-11-15T00:00:06;27.83;;;15.15;;
25249;SDS011;13201;51.148;13.738;2022-11-15T00:02:33;35.42;;;16.48;;
25249;SDS011;13201;51.148;13.738;2022-11-15T00:04:58;29.92;;;15.45;;
25249;SDS011;13201;51.148;13.738;2022-11-15T00:07:24;33.17;;;15.68;;
25249;SDS011;13201;51.148;13.738;2022-11-15T00:09:49;31.60;;;15.77;;
25249;SDS011;13201;51.148;13.738;2022-11-15T00:12:15;29.75;;;15.77;;
25249;SDS011;13201;51.148;13.738;2022-11-15T00:14:41;30.13;;;16.08;;
25249;SDS011;13201;51.148;13.738;2022-11-15T00:17:06;30.20;;;15.25;;
25249;SDS011;13201;51.148;13.738;2022-11-15T00:19:32;31.17;;;16.55;;
25249;SDS011;13201;51.148;13.738;2022-11-15T00:21:58;31.48;;;15.40;;
25249;SDS011;13201;51.148;13.738;2022-11-15T00:24:23;29.88;;;15.15;;
25249;SDS011;13201;51.148;13.738;2022-11-15T00:26:49;30.92;;;15.55;;
25249;SDS011;13201;51.148;13.738;2022-11-15T00:29:15;33.78;;;15.70;;
25249;SDS011;13201;51.148;13.738;2022-11-15T00:31:40;28.88;;;15.35;;
25249;SDS011;13201;51.148;13.738;2022-11-15T00:34:06;29.83;;;15.52;;
25249;SDS011;13201;51.148;13.738;2022-11-15T00:36:32;30.48;;;15.98;;
25249;SDS011;13201;51.148;13.738;2022-11-15T00:38:59;27.20;;;14.50;;
25249;SDS011;13201;51.148;13.738;2022-11-15T00:41:25;28.15;;;15.45;;
25249;SDS011;13201;51.148;13.738;2022-11-15T00:43:51;30.42;;;14.95;;
25249;SDS011;13201;51.148;13.738;2022-11-15T00:46:16;31.67;;;16.15;;
25249;SDS011;13201;51.148;13.738;2022-11-15T00:48:42;30.77;;;14.68;;
25249;SDS011;13201;51.148;13.738;2022-11-15T00:51:08;28.73;;;15.55;;
25249;SDS011;13201;51.148;13.738;2022-11-15T00:53:33;31.02;;;15.27;;
25249;SDS011;13201;51.148;13.738;2022-11-15T00:55:59;31.52;;;15.45;;
25249;SDS011;13201;51.148;13.738;2022-11-15T00:58:25;31.85;;;16.00;;
25249;SDS011;13201;51.148;13.738;2022-11-15T01:00:50;30.67;;;15.25;;
25249;SDS011;13201;51.148;13.738;2022-11-15T01:03:16;28.80;;;15.20;;
25249;SDS011;13201;51.148;13.738;2022-11-15T01:05:42;31.13;;;14.45;;
25249;SDS011;13201;51.148;13.738;2022-11-15T01:31:18;32.50;;;16.45;;
25249;SDS011;13201;51.148;13.738;2022-11-15T01:33:45;33.65;;;16.98;;
25249;SDS011;13201;51.148;13.738;2022-11-15T01:36:19;38.05;;;16.80;;
25249;SDS011;13201;51.148;13.738;2022-11-15T01:38:46;35.40;;;16.27;;
25249;SDS011;13201;51.148;13.738;2022-11-15T01:41:18;35.40;;;16.42;;
25249;SDS011;13201;51.148;13.738;2022-11-15T01:43:49;33.45;;;15.88;;
25249;SDS011;13201;51.148;13.738;2022-11-15T01:48:46;32.33;;;15.38;;
25249;SDS011;13201;51.148;13.738;2022-11-15T01:51:15;35.03;;;15.82;;
25249;SDS011;13201;51.148;13.738;2022-11-15T01:53:42;30.40;;;14.90;;
25249;SDS011;13201;51.148;13.738;2022-11-15T01:56:13;31.55;;;15.05;;
25249;SDS011;13201;51.148;13.738;2022-11-15T01:58:41;34.17;;;14.20;;
25249;SDS011;13201;51.148;13.738;2022-11-15T02:01:10;30.88;;;14.93;;
25249;SDS011;13201;51.148;13.738;2022-11-15T02:06:36;35.58;;;14.90;;
25249;SDS011;13201;51.148;13.738;2022-11-15T02:09:03;30.92;;;14.88;;
25249;SDS011;13201;51.148;13.738;2022-11-15T02:11:29;29.35;;;14.57;;
25249;SDS011;13201;51.148;13.738;2022-11-15T02:13:55;30.00;;;14.30;;
25249;SDS011;13201;51.148;13.738;2022-11-15T02:27:39;31.08;;;14.48;;
25249;SDS011;13201;51.148;13.738;2022-11-15T02:30:28;32.65;;;15.05;;
25249;SDS011;13201;51.148;13.738;2022-11-15T02:32:58;34.40;;;14.95;;
25249;SDS011;13201;51.148;13.738;2022-11-15T02:35:40;32.38;;;15.43;;
25249;SDS011;13201;51.148;13.738;2022-11-15T02:38:59;31.42;;;14.75;;
25249;SDS011;13201;51.148;13.738;2022-11-15T02:41:11;30.58;;;15.40;;
25249;SDS011;13201;51.148;13.738;2022-11-15T02:43:50;33.53;;;15.07;;
25249;SDS011;13201;51.148;13.738;2022-11-15T02:47:13;30.98;;;14.07;;
25249;SDS011;13201;51.148;13.738;2022-11-15T02:49:47;29.65;;;14.10;;
25249;SDS011;13201;51.148;13.738;2022-11-15T02:52:19;28.13;;;13.52;;
25249;SDS011;13201;51.148;13.738;2022-11-15T02:54:56;27.98;;;13.43;;
25249;SDS011;13201;51.148;13.738;2022-11-15T02:57:45;31.83;;;14.18;;
25249;SDS011;13201;51.148;13.738;2022-11-15T03:00:19;31.25;;;14.95;;
25249;SDS011;13201;51.148;13.738;2022-11-15T03:08:13;29.35;;;13.55;;
25249;SDS011;13201;51.148;13.738;2022-11-15T03:11:14;26.75;;;12.02;;
25249;SDS011;13201;51.148;13.738;2022-11-15T03:19:52;27.23;;;12.93;;
25249;SDS011;13201;51.148;13.738;2022-11-15T03:22:22;27.33;;;13.15;;
25249;SDS011;13201;51.148;13.738;2022-11-15T03:25:00;26.83;;;12.60;;
25249;SDS011;13201;51.148;13.738;2022-11-15T03:27:31;31.25;;;13.52;;
25249;SDS011;13201;51.148;13.738;2022-11-15T03:30:01;27.00;;;13.18;;
25249;SDS011;13201;51.148;13.738;2022-11-15T03:32:30;30.63;;;12.85;;
25249;SDS011;13201;51.148;13.738;2022-11-15T03:35:02;29.63;;;13.20;;
25249;SDS011;13201;51.148;13.738;2022-11-15T03:37:37;28.33;;;12.85;;
25249;SDS011;13201;51.148;13.738;2022-11-15T03:40:09;28.17;;;13.45;;
25249;SDS011;13201;51.148;13.738;2022-11-15T03:42:40;26.50;;;13.00;;
25249;SDS011;13201;51.148;13.738;2022-11-15T03:47:53;28.45;;;13.20;;
25249;SDS011;13201;51.148;13.738;2022-11-15T03:50:34;26.50;;;12.35;;
25249;SDS011;13201;51.148;13.738;2022-11-15T03:53:00;29.77;;;13.23;;
25249;SDS011;13201;51.148;13.738;2022-11-15T03:55:25;24.67;;;11.93;;
25249;SDS011;13201;51.148;13.738;2022-11-15T03:57:52;25.20;;;12.13;;
25249;SDS011;13201;51.148;13.738;2022-11-15T04:00:21;25.48;;;12.25;;
25249;SDS011;13201;51.148;13.738;2022-11-15T04:02:46;28.40;;;12.45;;
25249;SDS011;13201;51.148;13.738;2022-11-15T04:05:12;23.17;;;12.15;;
25249;SDS011;13201;51.148;13.738;2022-11-15T04:07:38;25.67;;;12.80;;
25249;SDS011;13201;51.148;13.738;2022-11-15T04:10:03;30.17;;;12.25;;
25249;SDS011;13201;51.148;13.738;2022-11-15T04:12:33;26.95;;;12.48;;
25249;SDS011;13201;51.148;13.738;2022-11-15T04:17:38;27.23;;;12.40;;
25249;SDS011;13201;51.148;13.738;2022-11-15T04:20:10;25.35;;;11.88;;
25249;SDS011;13201;51.148;13.738;2022-11-15T04:25:55;24.55;;;11.63;;
25249;SDS011;13201;51.148;13.738;2022-11-15T04:28:22;22.48;;;11.15;;
25249;SDS011;13201;51.148;13.738;2022-11-15T04:30:48;27.00;;;11.75;;
25249;SDS011;13201;51.148;13.738;2022-11-15T04:33:14;26.55;;;12.50;;
25249;SDS011;13201;51.148;13.738;2022-11-15T04:35:40;21.73;;;10.95;;
25249;SDS011;13201;51.148;13.738;2022-11-15T04:38:08;25.35;;;11.73;;
25249;SDS011;13201;51.148;13.738;2022-11-15T04:40:35;26.70;;;11.32;;
25249;SDS011;13201;51.148;13.738;2022-11-15T04:43:01;24.80;;;11.70;;
25249;SDS011;13201;51.148;13.738;2022-11-15T04:45:27;25.33;;;11.90;;
25249;SDS011;13201;51.148;13.738;2022-11-15T04:47:52;24.80;;;11.57;;
25249;SDS011;13201;51.148;13.738;2022-11-15T04:50:18;23.55;;;11.50;;
25249;SDS011;13201;51.148;13.738;2022-11-15T04:52:49;22.05;;;10.60;;
25249;SDS011;13201;51.148;13.738;2022-11-15T04:55:16;26.65;;;12.18;;
25249;SDS011;13201;51.148;13.738;2022-11-15T04:57:42;25.17;;;11.43;;
25249;SDS011;13201;51.148;13.738;2022-11-15T05:00:09;26.27;;;11.05;;
25249;SDS011;13201;51.148;13.738;2022-11-15T05:02:40;22.98;;;10.30;;
25249;SDS011;13201;51.148;13.738;2022-11-15T05:05:24;26.50;;;11.63;;
25249;SDS011;13201;51.148;13.738;2022-11-15T05:07:50;23.25;;;10.43;;
25249;SDS011;13201;51.148;13.738;2022-11-15T05:10:16;22.40;;;11.18;;
25249;SDS011;13201;51.148;13.738;2022-11-15T05:12:42;23.08;;;10.25;;
25249;SDS011;13201;51.148;13.738;2022-11-15T05:15:07;24.23;;;11.27;;
25249;SDS011;13201;51.148;13.738;2022-11-15T05:17:34;25.65;;;11.50;;
25249;SDS011;13201;51.148;13.738;2022-11-15T05:19:59;22.38;;;11.23;;
25249;SDS011;13201;51.148;13.738;2022-11-15T05:22:25;25.48;;;11.90;;
25249;SDS011;13201;51.148;13.738;2022-11-15T05:24:50;26.08;;;11.73;;
25249;SDS011;13201;51.148;13.738;2022-11-15T05:27:16;20.70;;;10.40;;
25249;SDS011;13201;51.148;13.738;2022-11-15T05:29:42;21.27;;;10.80;;
25249;SDS011;13201;51.148;13.738;2022-11-15T05:32:08;23.70;;;11.02;;
25249;SDS011;13201;51.148;13.738;2022-11-15T05:34:35;20.73;;;10.73;;
25249;SDS011;13201;51.148;13.738;2022-11-15T05:37:00;25.23;;;10.55;;
25249;SDS011;13201;51.148;13.738;2022-11-15T05:39:26;21.85;;;10.68;;
25249;SDS011;13201;51.148;13.738;2022-11-15T05:41:53;22.38;;;11.02;;
25249;SDS011;13201;51.148;13.738;2022-11-15T05:44:32;21.00;;;9.68;;
25249;SDS011;13201;51.148;13.738;2022-11-15T05:46:59;22.05;;;10.52;;
25249;SDS011;13201;51.148;13.738;2022-11-15T05:49:25;25.33;;;11.07;;
25249;SDS011;13201;51.148;13.738;2022-11-15T05:51:56;23.85;;;9.68;;
25249;SDS011;13201;51.148;13.738;2022-11-15T05:54:23;23.25;;;10.82;;
25249;SDS011;13201;51.148;13.738;2022-11-15T05:56:49;22.70;;;11.40;;
25249;SDS011;13201;51.148;13.738;2022-11-15T05:59:15;26.73;;;11.38;;
25249;SDS011;13201;51.148;13.738;2022-11-15T06:01:42;26.07;;;11.53;;
25249;SDS011;13201;51.148;13.738;2022-11-15T06:04:07;31.63;;;11.77;;
25249;SDS011;13201;51.148;13.738;2022-11-15T06:06:33;29.73;;;12.13;;
25249;SDS011;13201;51.148;13.738;2022-11-15T06:08:58;27.80;;;12.13;;
25249;SDS011;13201;51.148;13.738;2022-11-15T06:11:24;54.78;;;20.88;;
25249;SDS011;13201;51.148;13.738;2022-11-15T06:13:50;42.38;;;18.83;;
25249;SDS011;13201;51.148;13.738;2022-11-15T06:16:15;33.47;;;14.07;;
25249;SDS011;13201;51.148;13.738;2022-11-15T06:18:41;26.00;;;11.07;;
25249;SDS011;13201;51.148;13.738;2022-11-15T06:21:07;27.13;;;11.95;;
25249;SDS011;13201;51.148;13.738;2022-11-15T06:23:33;22.92;;;11.63;;
25249;SDS011;13201;51.148;13.738;2022-11-15T06:26:00;23.73;;;11.57;;
25249;SDS011;13201;51.148;13.738;2022-11-15T06:28:30;21.65;;;9.82;;
25249;SDS011;13201;51.148;13.738;2022-11-15T06:31:01;22.48;;;10.55;;
25249;SDS011;13201;51.148;13.738;2022-11-15T06:33:28;23.42;;;10.65;;
25249;SDS011;13201;51.148;13.738;2022-11-15T06:35:53;20.05;;;10.70;;
25249;SDS011;13201;51.148;13.738;2022-11-15T06:38:19;22.42;;;9.95;;
25249;SDS011;13201;51.148;13.738;2022-11-15T06:40:45;17.45;;;9.50;;
25249;SDS011;13201;51.148;13.738;2022-11-15T06:43:10;21.80;;;10.02;;
25249;SDS011;13201;51.148;13.738;2022-11-15T06:45:36;20.63;;;9.73;;
25249;SDS011;13201;51.148;13.738;2022-11-15T06:48:02;17.92;;;9.25;;
25249;SDS011;13201;51.148;13.738;2022-11-15T06:50:27;22.40;;;10.45;;
25249;SDS011;13201;51.148;13.738;2022-11-15T06:52:53;23.08;;;10.32;;
25249;SDS011;13201;51.148;13.738;2022-11-15T06:55:19;24.03;;;9.63;;
25249;SDS011;13201;51.148;13.738;2022-11-15T06:57:51;20.35;;;9.75;;
25249;SDS011;13201;51.148;13.738;2022-11-15T07:00:18;22.77;;;9.93;;
25249;SDS011;13201;51.148;13.738;2022-11-15T07:02:45;22.25;;;10.68;;
25249;SDS011;13201;51.148;13.738;2022-11-15T07:05:11;22.13;;;10.13;;
25249;SDS011;13201;51.148;13.738;2022-11-15T07:07:38;24.77;;;10.20;;
25249;SDS011;13201;51.148;13.738;2022-11-15T07:10:04;23.33;;;9.90;;
25249;SDS011;13201;51.148;13.738;2022-11-15T07:12:30;22.33;;;10.00;;
25249;SDS011;13201;51.148;13.738;2022-11-15T07:14:56;21.02;;;10.70;;
25249;SDS011;13201;51.148;13.738;2022-11-15T07:17:21;23.75;;;10.63;;
25249;SDS011;13201;51.148;13.738;2022-11-15T07:19:47;21.35;;;9.70;;
25249;SDS011;13201;51.148;13.738;2022-11-15T07:22:13;21.45;;;10.35;;
25249;SDS011;13201;51.148;13.738;2022-11-15T07:24:38;19.88;;;10.27;;
25249;SDS011;13201;51.148;13.738;2022-11-15T07:27:04;22.85;;;10.32;;
25249;SDS011;13201;51.148;13.738;2022-11-15T07:29:29;19.27;;;9.93;;
25249;SDS011;13201;51.148;13.738;2022-11-15T07:31:55;19.70;;;10.13;;
25249;SDS011;13201;51.148;13.738;2022-11-15T07:34:21;28.10;;;12.05;;
25249;SDS011;13201;51.148;13.738;2022-11-15T07:36:47;26.25;;;11.20;;
25249;SDS011;13201;51.148;13.738;2022-11-15T07:39:12;22.95;;;11.02;;
25249;SDS011;13201;51.148;13.738;2022-11-15T07:41:39;24.87;;;10.90;;
25249;SDS011;13201;51.148;13.738;2022-11-15T07:44:04;21.85;;;10.48;;
25249;SDS011;13201;51.148;13.738;2022-11-15T07:46:30;20.33;;;10.20;;
25249;SDS011;13201;51.148;13.738;2022-11-15T07:48:56;22.67;;;10.27;;
25249;SDS011;13201;51.148;13.738;2022-11-15T07:51:22;19.92;;;9.88;;
25249;SDS011;13201;51.148;13.738;2022-11-15T07:53:48;23.10;;;9.95;;
25249;SDS011;13201;51.148;13.738;2022-11-15T07:56:13;22.40;;;10.10;;
25249;SDS011;13201;51.148;13.738;2022-11-15T07:58:39;27.60;;;10.82;;
25249;SDS011;13201;51.148;13.738;2022-11-15T08:01:05;19.20;;;9.75;;
25249;SDS011;13201;51.148;13.738;2022-11-15T08:03:32;20.73;;;10.38;;
25249;SDS011;13201;51.148;13.738;2022-11-15T08:05:58;22.25;;;10.88;;
25249;SDS011;13201;51.148;13.738;2022-11-15T08:08:24;20.67;;;11.07;;
25249;SDS011;13201;51.148;13.738;2022-11-15T08:10:50;24.10;;;10.98;;
25249;SDS011;13201;51.148;13.738;2022-11-15T08:13:15;21.20;;;10.60;;
25249;SDS011;13201;51.148;13.738;2022-11-15T08:15:41;19.15;;;9.65;;
25249;SDS011;13201;51.148;13.738;2022-11-15T08:18:09;21.63;;;10.30;;
25249;SDS011;13201;51.148;13.738;2022-11-15T08:20:37;21.45;;;10.25;;
25249;SDS011;13201;51.148;13.738;2022-11-15T08:23:03;21.48;;;10.60;;
25249;SDS011;13201;51.148;13.738;2022-11-15T08:25:30;19.95;;;10.07;;
25249;SDS011;13201;51.148;13.738;2022-11-15T08:27:59;26.10;;;11.05;;
25249;SDS011;13201;51.148;13.738;2022-11-15T08:30:26;23.90;;;11.10;;
25249;SDS011;13201;51.148;13.738;2022-11-15T08:32:53;24.95;;;10.98;;
25249;SDS011;13201;51.148;13.738;2022-11-15T08:35:20;22.77;;;10.85;;
25249;SDS011;13201;51.148;13.738;2022-11-15T08:37:46;20.83;;;9.93;;
25249;SDS011;13201;51.148;13.738;2022-11-15T08:40:12;21.45;;;9.82;;
25249;SDS011;13201;51.148;13.738;2022-11-15T08:42:39;19.75;;;10.23;;
25249;SDS011;13201;51.148;13.738;2022-11-15T08:45:05;22.17;;;10.50;;
25249;SDS011;13201;51.148;13.738;2022-11-15T08:47:32;21.50;;;10.20;;
25249;SDS011;13201;51.148;13.738;2022-11-15T08:49:58;18.35;;;9.85;;
25249;SDS011;13201;51.148;13.738;2022-11-15T08:52:24;20.23;;;9.55;;
25249;SDS011;13201;51.148;13.738;2022-11-15T08:54:49;19.33;;;9.50;;
25249;SDS011;13201;51.148;13.738;2022-11-15T08:57:15;21.17;;;9.65;;
25249;SDS011;13201;51.148;13.738;2022-11-15T08:59:41;20.10;;;9.40;;
25249;SDS011;13201;51.148;13.738;2022-11-15T09:02:10;19.88;;;9.82;;
25249;SDS011;13201;51.148;13.738;2022-11-15T09:04:42;23.48;;;9.93;;
25249;SDS011;13201;51.148;13.738;2022-11-15T09:07:09;20.13;;;9.40;;
25249;SDS011;13201;51.148;13.738;2022-11-15T09:09:35;20.65;;;9.45;;
25249;SDS011;13201;51.148;13.738;2022-11-15T09:12:02;22.15;;;8.68;;
25249;SDS011;13201;51.148;13.738;2022-11-15T09:14:28;20.03;;;9.07;;
25249;SDS011;13201;51.148;13.738;2022-11-15T09:16:54;15.93;;;8.88;;
25249;SDS011;13201;51.148;13.738;2022-11-15T09:19:20;19.65;;;8.65;;
25249;SDS011;13201;51.148;13.738;2022-11-15T09:21:46;17.10;;;8.40;;
25249;SDS011;13201;51.148;13.738;2022-11-15T09:24:12;18.15;;;8.80;;
25249;SDS011;13201;51.148;13.738;2022-11-15T09:26:38;18.55;;;8.65;;
25249;SDS011;13201;51.148;13.738;2022-11-15T09:29:04;17.58;;;8.73;;
25249;SDS011;13201;51.148;13.738;2022-11-15T09:31:30;18.67;;;9.60;;
25249;SDS011;13201;51.148;13.738;2022-11-15T09:33:56;18.13;;;8.77;;
25249;SDS011;13201;51.148;13.738;2022-11-15T09:36:22;15.85;;;8.40;;
25249;SDS011;13201;51.148;13.738;2022-11-15T09:38:48;16.75;;;8.48;;
25249;SDS011;13201;51.148;13.738;2022-11-15T09:46:46;17.98;;;8.82;;
25249;SDS011;13201;51.148;13.738;2022-11-15T09:49:30;15.85;;;8.10;;
25249;SDS011;13201;51.148;13.738;2022-11-15T09:51:57;15.73;;;8.07;;
25249;SDS011;13201;51.148;13.738;2022-11-15T09:56:52;14.18;;;7.47;;
25249;SDS011;13201;51.148;13.738;2022-11-15T10:04:40;13.18;;;7.47;;
25249;SDS011;13201;51.148;13.738;2022-11-15T10:09:51;14.90;;;8.60;;
25249;SDS011;13201;51.148;13.738;2022-11-15T10:12:17;16.63;;;7.90;;
25249;SDS011;13201;51.148;13.738;2022-11-15T10:14:44;14.13;;;7.90;;
25249;SDS011;13201;51.148;13.738;2022-11-15T10:22:44;18.92;;;9.07;;
25249;SDS011;13201;51.148;13.738;2022-11-15T10:27:50;15.65;;;8.20;;
25249;SDS011;13201;51.148;13.738;2022-11-15T10:30:20;16.77;;;8.35;;
25249;SDS011;13201;51.148;13.738;2022-11-15T10:32:47;17.52;;;8.20;;
25249;SDS011;13201;51.148;13.738;2022-11-15T10:35:25;14.85;;;7.78;;
25249;SDS011;13201;51.148;13.738;2022-11-15T10:38:03;15.02;;;7.50;;
25249;SDS011;13201;51.148;13.738;2022-11-15T10:40:31;17.48;;;8.45;;
25249;SDS011;13201;51.148;13.738;2022-11-15T10:43:13;16.42;;;7.57;;
25249;SDS011;13201;51.148;13.738;2022-11-15T10:45:40;15.50;;;7.60;;
25249;SDS011;13201;51.148;13.738;2022-11-15T10:50:42;16.77;;;8.10;;
25249;SDS011;13201;51.148;13.738;2022-11-15T10:56:07;15.15;;;7.95;;
25249;SDS011;13201;51.148;13.738;2022-11-15T10:58:41;16.63;;;8.05;;
25249;SDS011;13201;51.148;13.738;2022-11-15T11:01:10;19.95;;;8.63;;
25249;SDS011;13201;51.148;13.738;2022-11-15T11:03:38;15.32;;;8.43;;
25249;SDS011;13201;51.148;13.738;2022-11-15T11:06:15;15.18;;;7.85;;
25249;SDS011;13201;51.148;13.738;2022-11-15T11:11:49;17.17;;;7.78;;
25249;SDS011;13201;51.148;13.738;2022-11-15T11:14:20;15.32;;;7.63;;
25249;SDS011;13201;51.148;13.738;2022-11-15T11:17:06;15.25;;;8.35;;
25249;SDS011;13201;51.148;13.738;2022-11-15T11:22:24;13.35;;;7.72;;
25249;SDS011;13201;51.148;13.738;2022-11-15T12:00:20;15.20;;;7.38;;
25249;SDS011;13201;51.148;13.738;2022-11-15T12:10:48;14.85;;;6.93;;
25249;SDS011;13201;51.148;13.738;2022-11-15T12:13:25;16.60;;;8.60;;
25249;SDS011;13201;51.148;13.738;2022-11-15T12:19:00;12.85;;;6.90;;
25249;SDS011;13201;51.148;13.738;2022-11-15T12:24:14;14.73;;;7.60;;
25249;SDS011;13201;51.148;13.738;2022-11-15T12:26:59;14.43;;;7.82;;
25249;SDS011;13201;51.148;13.738;2022-11-15T12:29:36;12.40;;;7.72;;
25249;SDS011;13201;51.148;13.738;2022-11-15T12:34:54;13.20;;;7.03;;
25249;SDS011;13201;51.148;13.738;2022-11-15T12:37:34;12.20;;;6.28;;
25249;SDS011;13201;51.148;13.738;2022-11-15T12:43:02;40.92;;;20.48;;
25249;SDS011;13201;51.148;13.738;2022-11-15T12:58:45;12.27;;;6.13;;
25249;SDS011;13201;51.148;13.738;2022-11-15T13:06:44;12.45;;;6.60;;
25249;SDS011;13201;51.148;13.738;2022-11-15T13:12:07;13.98;;;6.95;;
25249;SDS011;13201;51.148;13.738;2022-11-15T13:14:43;12.88;;;6.82;;
25249;SDS011;13201;51.148;13.738;2022-11-15T13:20:28;14.27;;;6.63;;
25249;SDS011;13201;51.148;13.738;2022-11-15T13:28:17;12.15;;;6.10;;
25249;SDS011;13201;51.148;13.738;2022-11-15T13:33:16;12.48;;;7.00;;
25249;SDS011;13201;51.148;13.738;2022-11-15T13:36:05;9.63;;;6.13;;
25249;SDS011;13201;51.148;13.738;2022-11-15T13:38:37;14.40;;;6.43;;
25249;SDS011;13201;51.148;13.738;2022-11-15T13:41:11;10.27;;;5.78;;
25249;SDS011;13201;51.148;13.738;2022-11-15T13:43:50;13.05;;;6.63;;
25249;SDS011;13201;51.148;13.738;2022-11-15T13:49:09;13.25;;;6.50;;
25249;SDS011;13201;51.148;13.738;2022-11-15T13:56:35;14.02;;;7.47;;
25249;SDS011;13201;51.148;13.738;2022-11-15T14:00:03;12.70;;;7.40;;
25249;SDS011;13201;51.148;13.738;2022-11-15T14:02:02;12.18;;;6.72;;
25249;SDS011;13201;51.148;13.738;2022-11-15T14:04:37;13.00;;;6.75;;
25249;SDS011;13201;51.148;13.738;2022-11-15T14:07:14;16.23;;;7.93;;
25249;SDS011;13201;51.148;13.738;2022-11-15T14:09:45;13.02;;;7.45;;
25249;SDS011;13201;51.148;13.738;2022-11-15T14:14:51;14.60;;;7.40;;
25249;SDS011;13201;51.148;13.738;2022-11-15T14:19:55;13.88;;;7.28;;
25249;SDS011;13201;51.148;13.738;2022-11-15T14:22:22;11.95;;;6.70;;
25249;SDS011;13201;51.148;13.738;2022-11-15T14:27:38;13.45;;;7.22;;
25249;SDS011;13201;51.148;13.738;2022-11-15T14:30:04;16.17;;;7.43;;
25249;SDS011;13201;51.148;13.738;2022-11-15T14:32:49;12.20;;;6.68;;
25249;SDS011;13201;51.148;13.738;2022-11-15T14:35:17;12.90;;;7.45;;
25249;SDS011;13201;51.148;13.738;2022-11-15T14:37:44;14.35;;;7.95;;
25249;SDS011;13201;51.148;13.738;2022-11-15T14:40:14;13.23;;;7.60;;
25249;SDS011;13201;51.148;13.738;2022-11-15T14:42:42;15.50;;;7.80;;
25249;SDS011;13201;51.148;13.738;2022-11-15T14:45:13;16.30;;;8.02;;
25249;SDS011;13201;51.148;13.738;2022-11-15T14:47:39;15.80;;;7.97;;
25249;SDS011;13201;51.148;13.738;2022-11-15T14:50:06;14.65;;;8.57;;
25249;SDS011;13201;51.148;13.738;2022-11-15T14:52:35;16.02;;;7.63;;
25249;SDS011;13201;51.148;13.738;2022-11-15T14:55:02;15.05;;;8.18;;
25249;SDS011;13201;51.148;13.738;2022-11-15T14:57:34;16.30;;;8.23;;
25249;SDS011;13201;51.148;13.738;2022-11-15T15:00:00;18.08;;;8.32;;
25249;SDS011;13201;51.148;13.738;2022-11-15T15:02:26;16.23;;;9.07;;
25249;SDS011;13201;51.148;13.738;2022-11-15T15:04:52;20.57;;;9.43;;
25249;SDS011;13201;51.148;13.738;2022-11-15T15:07:18;16.03;;;9.10;;
25249;SDS011;13201;51.148;13.738;2022-11-15T15:09:44;17.75;;;8.82;;
25249;SDS011;13201;51.148;13.738;2022-11-15T15:12:20;16.70;;;8.40;;
25249;SDS011;13201;51.148;13.738;2022-11-15T15:14:48;16.17;;;8.32;;
25249;SDS011;13201;51.148;13.738;2022-11-15T15:17:15;18.23;;;8.45;;
25249;SDS011;13201;51.148;13.738;2022-11-15T15:19:41;20.55;;;8.75;;
25249;SDS011;13201;51.148;13.738;2022-11-15T15:22:17;18.27;;;9.02;;
25249;SDS011;13201;51.148;13.738;2022-11-15T15:24:46;15.32;;;8.15;;
25249;SDS011;13201;51.148;13.738;2022-11-15T15:27:12;18.80;;;8.82;;
25249;SDS011;13201;51.148;13.738;2022-11-15T15:29:38;17.25;;;8.75;;
25249;SDS011;13201;51.148;13.738;2022-11-15T15:32:04;19.88;;;9.05;;
25249;SDS011;13201;51.148;13.738;2022-11-15T15:34:30;19.92;;;9.05;;
25249;SDS011;13201;51.148;13.738;2022-11-15T15:39:40;22.38;;;10.35;;
25249;SDS011;13201;51.148;13.738;2022-11-15T15:42:06;19.20;;;10.32;;
25249;SDS011;13201;51.148;13.738;2022-11-15T15:44:31;17.77;;;9.27;;
25249;SDS011;13201;51.148;13.738;2022-11-15T15:46:57;27.83;;;14.02;;
25249;SDS011;13201;51.148;13.738;2022-11-15T15:49:23;25.88;;;10.30;;
25249;SDS011;13201;51.148;13.738;2022-11-15T15:51:49;16.65;;;8.88;;
25249;SDS011;13201;51.148;13.738;2022-11-15T15:54:14;18.58;;;9.23;;
25249;SDS011;13201;51.148;13.738;2022-11-15T15:56:40;19.98;;;10.05;;
25249;SDS011;13201;51.148;13.738;2022-11-15T15:59:06;17.98;;;9.15;;
25249;SDS011;13201;51.148;13.738;2022-11-15T16:01:31;20.52;;;8.80;;
25249;SDS011;13201;51.148;13.738;2022-11-15T16:03:57;20.80;;;9.40;;
25249;SDS011;13201;51.148;13.738;2022-11-15T16:06:41;17.33;;;9.18;;
25249;SDS011;13201;51.148;13.738;2022-11-15T16:09:13;19.02;;;9.43;;
25249;SDS011;13201;51.148;13.738;2022-11-15T16:11:40;16.35;;;8.65;;
25249;SDS011;13201;51.148;13.738;2022-11-15T16:14:07;18.88;;;9.05;;
25249;SDS011;13201;51.148;13.738;2022-11-15T16:16:34;17.92;;;8.70;;
25249;SDS011;13201;51.148;13.738;2022-11-15T16:19:00;20.17;;;9.45;;
25249;SDS011;13201;51.148;13.738;2022-11-15T16:21:26;21.25;;;9.60;;
25249;SDS011;13201;51.148;13.738;2022-11-15T16:23:52;18.08;;;9.25;;
25249;SDS011;13201;51.148;13.738;2022-11-15T16:26:22;22.17;;;10.48;;
25249;SDS011;13201;51.148;13.738;2022-11-15T16:28:50;18.90;;;10.02;;
25249;SDS011;13201;51.148;13.738;2022-11-15T16:31:16;21.23;;;9.88;;
25249;SDS011;13201;51.148;13.738;2022-11-15T16:33:43;19.13;;;10.00;;
25249;SDS011;13201;51.148;13.738;2022-11-15T16:36:18;26.13;;;11.80;;
25249;SDS011;13201;51.148;13.738;2022-11-15T16:38:44;20.42;;;10.27;;
25249;SDS011;13201;51.148;13.738;2022-11-15T16:41:10;19.17;;;9.68;;
25249;SDS011;13201;51.148;13.738;2022-11-15T16:43:36;19.52;;;10.07;;
25249;SDS011;13201;51.148;13.738;2022-11-15T16:46:06;20.77;;;10.50;;
25249;SDS011;13201;51.148;13.738;2022-11-15T16:48:37;21.42;;;10.25;;
25249;SDS011;13201;51.148;13.738;2022-11-15T16:51:04;24.60;;;10.82;;
25249;SDS011;13201;51.148;13.738;2022-11-15T16:53:30;22.08;;;10.00;;
25249;SDS011;13201;51.148;13.738;2022-11-15T16:55:55;22.25;;;10.23;;
25249;SDS011;13201;51.148;13.738;2022-11-15T16:58:21;18.90;;;9.93;;
25249;SDS011;13201;51.148;13.738;2022-11-15T17:00:54;23.67;;;10.25;;
25249;SDS011;13201;51.148;13.738;2022-11-15T17:03:21;21.38;;;10.73;;
25249;SDS011;13201;51.148;13.738;2022-11-15T17:05:48;21.35;;;10.82;;
25249;SDS011;13201;51.148;13.738;2022-11-15T17:08:14;22.90;;;11.25;;
25249;SDS011;13201;51.148;13.738;2022-11-15T17:10:40;24.88;;;10.85;;
25249;SDS011;13201;51.148;13.738;2022-11-15T17:13:08;25.10;;;12.38;;
25249;SDS011;13201;51.148;13.738;2022-11-15T17:15:38;29.40;;;12.93;;
25249;SDS011;13201;51.148;13.738;2022-11-15T17:18:04;22.02;;;10.43;;
25249;SDS011;13201;51.148;13.738;2022-11-15T17:20:30;22.25;;;10.05;;
25249;SDS011;13201;51.148;13.738;2022-11-15T17:22:56;19.85;;;10.00;;
25249;SDS011;13201;51.148;13.738;2022-11-15T17:25:22;22.95;;;9.77;;
25249;SDS011;13201;51.148;13.738;2022-11-15T17:27:48;19.15;;;10.02;;
25249;SDS011;13201;51.148;13.738;2022-11-15T17:30:14;23.60;;;10.07;;
25249;SDS011;13201;51.148;13.738;2022-11-15T17:32:41;21.83;;;10.57;;
25249;SDS011;13201;51.148;13.738;2022-11-15T17:35:07;19.38;;;9.05;;
25249;SDS011;13201;51.148;13.738;2022-11-15T17:37:34;20.13;;;9.52;;
25249;SDS011;13201;51.148;13.738;2022-11-15T17:40:00;21.93;;;10.23;;
25249;SDS011;13201;51.148;13.738;2022-11-15T17:42:26;19.58;;;9.48;;